createdAt,value
2018-04-09T00:00:21.193Z,41.4
2018-04-09T00:01:22.560Z,41.4
2018-04-09T00:02:23.920Z,41.3
2018-04-09T00:03:25.270Z,41.5
2018-04-09T00:04:26.631Z,41.5
2018-04-09T00:05:27.996Z,41.6
2018-04-09T00:06:29.358Z,41.5
2018-04-09T00:07:30.712Z,41.2
2018-04-09T00:08:32.072Z,41.4
2018-04-09T00:09:33.432Z,41.6
2018-04-09T00:10:34.796Z,41.6
2018-04-09T00:11:36.307Z,41.5
2018-04-09T00:12:37.664Z,41.7
2018-04-09T00:13:39.012Z,41.4
2018-04-09T00:14:40.373Z,41.5
2018-04-09T00:15:41.735Z,41.5
2018-04-09T00:16:43.109Z,41.5
2018-04-09T00:17:44.466Z,41.5
2018-04-09T00:18:45.827Z,41.7
2018-04-09T00:19:47.189Z,41.8
2018-04-09T00:20:48.552Z,41.8
2018-04-09T00:21:49.899Z,41.9
2018-04-09T00:22:51.261Z,42.5
2018-04-09T00:23:52.622Z,42.4
2018-04-09T00:24:54.718Z,42.2
2018-04-09T00:25:56.078Z,42.2
2018-04-09T00:26:57.431Z,41.8
2018-04-09T00:27:58.787Z,42.2
2018-04-09T00:29:00.148Z,42.2
2018-04-09T00:30:01.514Z,42.2
2018-04-09T00:31:02.860Z,42.2
2018-04-09T00:32:04.220Z,42.4
2018-04-09T00:33:05.579Z,42.4
2018-04-09T00:34:06.937Z,42.0
2018-04-09T00:35:08.292Z,42.1
2018-04-09T00:36:09.651Z,42.3
2018-04-09T00:37:11.006Z,42.8
2018-04-09T00:38:12.372Z,41.7
2018-04-09T00:39:13.720Z,42.0
2018-04-09T00:40:15.091Z,42.4
2018-04-09T00:41:16.448Z,41.9
2018-04-09T00:42:17.798Z,42.5
2018-04-09T00:43:19.148Z,42.6
2018-04-09T00:44:20.510Z,41.9
2018-04-09T00:45:21.874Z,41.9
2018-04-09T00:46:23.227Z,42.6
2018-04-09T00:47:24.580Z,42.5
2018-04-09T00:48:25.943Z,42.7
2018-04-09T00:49:27.299Z,42.8
2018-04-09T00:50:28.659Z,42.7
2018-04-09T00:51:30.007Z,42.7
2018-04-09T00:52:31.367Z,42.4
2018-04-09T00:53:32.730Z,42.2
2018-04-09T00:54:34.094Z,42.6
2018-04-09T00:55:35.444Z,42.3
2018-04-09T00:56:36.800Z,42.6
2018-04-09T00:57:38.159Z,42.5
2018-04-09T00:58:39.512Z,42.6
2018-04-09T00:59:40.874Z,42.1
2018-04-09T01:00:42.237Z,42.7
2018-04-09T01:01:43.592Z,41.8
2018-04-09T01:02:44.959Z,42.4
2018-04-09T01:03:46.309Z,42.2
2018-04-09T01:04:47.665Z,42.2
2018-04-09T01:05:49.027Z,42.4
2018-04-09T01:06:50.382Z,42.3
2018-04-09T01:07:51.735Z,42.2
2018-04-09T01:08:53.097Z,42.8
2018-04-09T01:09:54.451Z,42.8
2018-04-09T01:10:55.805Z,42.8
2018-04-09T01:11:57.163Z,42.9
2018-04-09T01:12:58.530Z,42.2
2018-04-09T01:13:59.883Z,42.5
2018-04-09T01:15:01.237Z,42.7
2018-04-09T01:16:02.600Z,42.8
2018-04-09T01:17:03.967Z,42.7
2018-04-09T01:18:05.317Z,42.7
2018-04-09T01:19:06.674Z,42.6
2018-04-09T01:20:08.052Z,42.5
2018-04-09T01:21:09.413Z,42.5
2018-04-09T01:22:10.777Z,42.1
2018-04-09T01:23:12.141Z,42.5
2018-04-09T01:24:13.494Z,42.2
2018-04-09T01:25:14.852Z,42.5
2018-04-09T01:26:16.200Z,42.5
2018-04-09T01:27:17.561Z,42.6
2018-04-09T01:28:18.926Z,42.3
2018-04-09T01:29:20.278Z,42.6
2018-04-09T01:30:21.644Z,42.8
2018-04-09T01:31:23.014Z,42.6
2018-04-09T01:32:24.369Z,42.0
2018-04-09T01:33:25.724Z,41.9
2018-04-09T01:34:27.081Z,42.5
2018-04-09T01:35:28.437Z,42.5
2018-04-09T01:36:29.796Z,42.6
2018-04-09T01:37:31.152Z,42.5
2018-04-09T01:38:32.515Z,42.4
2018-04-09T01:39:33.869Z,42.7
2018-04-09T01:40:35.229Z,42.8
2018-04-09T01:41:36.669Z,42.6
2018-04-09T01:42:38.026Z,42.6
2018-04-09T01:43:39.388Z,43.0
2018-04-09T01:44:40.750Z,42.9
2018-04-09T01:45:42.108Z,43.0
2018-04-09T01:46:43.458Z,42.9
2018-04-09T01:47:44.822Z,43.0
2018-04-09T01:48:46.176Z,43.4
2018-04-09T01:49:47.532Z,43.3
2018-04-09T01:50:48.880Z,43.2
2018-04-09T01:51:50.234Z,43.2
2018-04-09T01:52:51.591Z,42.6
2018-04-09T01:53:52.951Z,42.9
2018-04-09T01:54:54.310Z,43.3
2018-04-09T01:55:55.667Z,43.7
2018-04-09T01:56:57.027Z,43.6
2018-04-09T01:57:58.401Z,43.8
2018-04-09T01:58:59.756Z,43.9
2018-04-09T02:00:01.120Z,43.6
2018-04-09T02:01:02.473Z,43.7
2018-04-09T02:02:03.831Z,44.0
2018-04-09T02:03:05.185Z,43.9
2018-04-09T02:04:06.538Z,43.9
2018-04-09T02:05:07.894Z,43.7
2018-04-09T02:06:09.256Z,43.7
2018-04-09T02:07:10.618Z,43.7
2018-04-09T02:08:11.979Z,44.1
2018-04-09T02:09:13.331Z,44.1
2018-04-09T02:10:14.683Z,44.0
2018-04-09T02:11:16.045Z,44.2
2018-04-09T02:12:17.403Z,44.1
2018-04-09T02:13:18.765Z,44.1
2018-04-09T02:14:20.121Z,44.1
2018-04-09T02:15:21.475Z,44.0
2018-04-09T02:16:22.837Z,44.2
2018-04-09T02:17:24.198Z,44.1
2018-04-09T02:18:25.553Z,43.8
2018-04-09T02:19:26.909Z,44.2
2018-04-09T02:20:28.359Z,44.2
2018-04-09T02:21:29.728Z,44.2
2018-04-09T02:22:31.072Z,44.2
2018-04-09T02:23:32.436Z,44.2
2018-04-09T02:24:33.793Z,44.3
2018-04-09T02:25:35.152Z,44.6
2018-04-09T02:26:36.520Z,44.6
2018-04-09T02:27:37.874Z,44.7
2018-04-09T02:28:39.227Z,45.0
2018-04-09T02:29:40.589Z,45.6
2018-04-09T02:30:41.941Z,46.0
2018-04-09T02:31:43.303Z,46.8
2018-04-09T02:32:44.658Z,46.9
2018-04-09T02:33:46.017Z,47.8
2018-04-09T02:34:47.372Z,48.4
2018-04-09T02:35:48.727Z,48.5
2018-04-09T02:36:50.083Z,49.2
2018-04-09T02:37:51.441Z,49.2
2018-04-09T02:38:52.796Z,49.5
2018-04-09T02:39:54.890Z,50.0
2018-04-09T02:40:56.251Z,50.5
2018-04-09T02:41:57.611Z,50.8
2018-04-09T02:42:58.981Z,50.4
2018-04-09T02:44:00.339Z,50.5
2018-04-09T02:45:01.691Z,50.4
2018-04-09T02:46:03.043Z,49.5
2018-04-09T02:47:04.406Z,49.4
2018-04-09T02:48:05.760Z,48.5
2018-04-09T02:49:07.114Z,48.4
2018-04-09T02:50:08.862Z,48.2
2018-04-09T02:51:10.221Z,48.4
2018-04-09T02:52:11.569Z,48.1
2018-04-09T02:53:12.930Z,48.0
2018-04-09T02:54:14.300Z,47.8
2018-04-09T02:55:15.657Z,47.8
2018-04-09T02:56:17.016Z,47.8
2018-04-09T02:57:18.369Z,47.3
2018-04-09T02:58:19.726Z,47.5
2018-04-09T02:59:21.081Z,47.1
2018-04-09T03:00:22.439Z,47.0
2018-04-09T03:01:23.794Z,47.2
2018-04-09T03:02:25.153Z,47.1
2018-04-09T03:03:26.515Z,47.0
2018-04-09T03:04:27.877Z,47.3
2018-04-09T03:05:29.244Z,47.0
2018-04-09T03:06:30.601Z,46.8
2018-04-09T03:07:31.962Z,47.8
2018-04-09T03:08:33.324Z,47.7
2018-04-09T03:09:34.675Z,48.1
2018-04-09T03:10:36.058Z,48.2
2018-04-09T03:11:37.418Z,48.2
2018-04-09T03:12:38.775Z,48.2
2018-04-09T03:13:40.125Z,48.4
2018-04-09T03:14:41.483Z,48.6
2018-04-09T03:15:42.846Z,49.1
2018-04-09T03:16:44.203Z,49.8
2018-04-09T03:17:45.561Z,50.4
2018-04-09T03:18:46.923Z,50.3
2018-04-09T03:19:48.280Z,50.1
2018-04-09T03:20:49.630Z,50.8
2018-04-09T03:21:50.987Z,50.7
2018-04-09T03:22:52.343Z,51.0
2018-04-09T03:23:53.706Z,50.9
2018-04-09T03:24:55.060Z,51.4
2018-04-09T03:25:56.420Z,51.9
2018-04-09T03:26:57.779Z,52.2
2018-04-09T03:27:59.147Z,53.0
2018-04-09T03:29:00.499Z,53.5
2018-04-09T03:30:01.852Z,53.5
2018-04-09T03:31:03.216Z,54.3
2018-04-09T03:32:04.565Z,54.6
2018-04-09T03:33:06.566Z,54.6
2018-04-09T03:34:07.922Z,55.3
2018-04-09T03:35:09.291Z,54.9
2018-04-09T03:36:10.657Z,55.3
2018-04-09T03:37:12.016Z,56.0
2018-04-09T03:38:13.370Z,56.2
2018-04-09T03:39:14.733Z,56.2
2018-04-09T03:40:16.088Z,56.3
2018-04-09T03:41:17.447Z,57.0
2018-04-09T03:42:18.800Z,57.5
2018-04-09T03:43:20.155Z,57.6
2018-04-09T03:44:21.507Z,57.8
2018-04-09T03:45:22.866Z,58.4
2018-04-09T03:46:24.222Z,58.9
2018-04-09T03:47:25.578Z,58.9
2018-04-09T03:48:26.931Z,59.4
2018-04-09T03:49:28.281Z,59.7
2018-04-09T03:50:29.637Z,59.8
2018-04-09T03:51:30.991Z,59.9
2018-04-09T03:52:32.386Z,60.6
2018-04-09T03:53:33.702Z,60.6
2018-04-09T03:54:35.066Z,60.9
2018-04-09T03:55:36.418Z,60.9
2018-04-09T03:56:37.775Z,60.8
2018-04-09T03:57:39.126Z,61.3
2018-04-09T03:58:40.477Z,61.4
2018-04-09T03:59:41.832Z,61.3
2018-04-09T04:00:43.192Z,61.3
2018-04-09T04:01:44.553Z,61.3
2018-04-09T04:02:45.906Z,61.4
2018-04-09T04:03:47.273Z,61.2
2018-04-09T04:04:48.642Z,61.4
2018-04-09T04:05:49.999Z,61.6
2018-04-09T04:06:51.355Z,61.3
2018-04-09T04:07:52.711Z,61.5
2018-04-09T04:08:54.894Z,62.7
2018-04-09T04:09:56.251Z,62.8
2018-04-09T04:10:57.601Z,62.5
2018-04-09T04:11:58.962Z,62.8
2018-04-09T04:13:00.312Z,63.4
2018-04-09T04:14:01.671Z,62.8
2018-04-09T04:15:03.017Z,63.0
2018-04-09T04:16:04.376Z,63.3
2018-04-09T04:17:05.735Z,63.7
2018-04-09T04:18:07.090Z,63.2
2018-04-09T04:19:08.448Z,63.3
2018-04-09T04:20:09.808Z,63.0
2018-04-09T04:21:11.166Z,62.8
2018-04-09T04:22:12.514Z,62.8
2018-04-09T04:23:13.878Z,62.9
2018-04-09T04:24:16.173Z,62.7
2018-04-09T04:25:18.346Z,62.7
2018-04-09T04:26:20.384Z,62.8
2018-04-09T04:27:21.742Z,62.9
2018-04-09T04:28:23.160Z,62.7
2018-04-09T04:29:25.222Z,62.7
2018-04-09T04:30:27.200Z,63.8
2018-04-09T04:31:29.524Z,63.5
2018-04-09T04:32:31.698Z,63.1
2018-04-09T04:33:33.556Z,63.5
2018-04-09T04:34:35.863Z,63.8
2018-04-09T04:35:38.044Z,63.8
2018-04-09T04:36:40.216Z,63.5
2018-04-09T04:37:42.242Z,63.7
2018-04-09T04:38:43.593Z,63.7
2018-04-09T04:39:44.944Z,63.7
2018-04-09T04:40:46.295Z,63.7
2018-04-09T04:41:47.657Z,63.6
2018-04-09T04:42:49.008Z,63.8
2018-04-09T04:43:50.361Z,63.4
2018-04-09T04:44:51.717Z,63.3
2018-04-09T04:45:53.077Z,63.5
2018-04-09T04:46:54.434Z,63.5
2018-04-09T04:47:55.792Z,63.6
2018-04-09T04:48:57.157Z,63.7
2018-04-09T04:49:58.516Z,63.4
2018-04-09T04:50:59.877Z,63.3
2018-04-09T04:52:01.236Z,63.5
2018-04-09T04:53:02.590Z,63.3
2018-04-09T04:54:03.947Z,63.6
2018-04-09T04:55:05.297Z,63.7
2018-04-09T04:56:06.650Z,63.6
2018-04-09T04:57:08.009Z,63.8
2018-04-09T04:58:09.376Z,63.9
2018-04-09T04:59:10.741Z,63.6
2018-04-09T05:00:12.092Z,63.9
2018-04-09T05:01:13.442Z,63.6
2018-04-09T05:02:14.817Z,64.0
2018-04-09T05:03:16.179Z,64.1
2018-04-09T05:04:17.537Z,64.0
2018-04-09T05:05:18.889Z,64.4
2018-04-09T05:06:20.269Z,64.2
2018-04-09T05:07:21.632Z,64.2
2018-04-09T05:08:22.995Z,64.1
2018-04-09T05:09:24.356Z,64.1
2018-04-09T05:10:25.712Z,63.8
2018-04-09T05:11:27.068Z,63.9
2018-04-09T05:12:28.433Z,64.0
2018-04-09T05:13:29.795Z,64.1
2018-04-09T05:14:31.149Z,64.4
2018-04-09T05:15:32.510Z,64.1
2018-04-09T05:16:33.880Z,64.0
2018-04-09T05:17:35.241Z,64.2
2018-04-09T05:18:36.603Z,64.4
2018-04-09T05:19:37.958Z,64.6
2018-04-09T05:20:39.321Z,64.2
2018-04-09T05:21:40.680Z,64.2
2018-04-09T05:22:42.053Z,64.6
2018-04-09T05:23:43.418Z,64.4
2018-04-09T05:24:44.783Z,64.6
2018-04-09T05:25:46.146Z,64.7
2018-04-09T05:26:47.506Z,64.8
2018-04-09T05:27:48.891Z,64.8
2018-04-09T05:28:50.238Z,64.8
2018-04-09T05:29:51.608Z,64.6
2018-04-09T05:30:52.965Z,64.6
2018-04-09T05:31:54.344Z,64.6
2018-04-09T05:32:55.736Z,64.2
2018-04-09T05:33:57.098Z,64.1
2018-04-09T05:34:58.604Z,64.2
2018-04-09T05:35:59.976Z,64.4
2018-04-09T05:37:01.345Z,64.4
2018-04-09T05:38:02.713Z,64.4
2018-04-09T05:39:05.059Z,64.2
2018-04-09T05:40:06.427Z,64.2
2018-04-09T05:41:07.784Z,64.3
2018-04-09T05:42:09.139Z,64.3
2018-04-09T05:43:10.501Z,64.2
2018-04-09T05:44:11.863Z,64.0
2018-04-09T05:45:13.229Z,64.0
2018-04-09T05:46:14.587Z,63.8
2018-04-09T05:47:15.953Z,63.9
2018-04-09T05:48:17.319Z,63.9
2018-04-09T05:49:18.678Z,63.8
2018-04-09T05:50:20.043Z,63.6
2018-04-09T05:51:21.414Z,63.8
2018-04-09T05:52:22.806Z,63.8
2018-04-09T05:53:24.158Z,63.6
2018-04-09T05:54:25.535Z,63.9
2018-04-09T05:55:26.891Z,63.9
2018-04-09T05:56:28.249Z,64.1
2018-04-09T05:57:29.608Z,64.1
2018-04-09T05:58:31.012Z,64.5
2018-04-09T05:59:32.361Z,64.3
2018-04-09T06:00:33.823Z,64.2
2018-04-09T06:01:35.194Z,64.5
2018-04-09T06:02:36.557Z,64.4
2018-04-09T06:03:37.914Z,64.0
2018-04-09T06:04:39.284Z,63.7
2018-04-09T06:05:40.650Z,63.9
2018-04-09T06:06:42.013Z,63.9
2018-04-09T06:07:43.420Z,63.8
2018-04-09T06:08:44.800Z,63.7
2018-04-09T06:09:46.164Z,63.6
2018-04-09T06:10:47.608Z,63.7
2018-04-09T06:11:48.941Z,63.4
2018-04-09T06:12:50.302Z,63.6
2018-04-09T06:13:51.687Z,63.6
2018-04-09T06:14:53.062Z,63.7
2018-04-09T06:15:54.424Z,63.8
2018-04-09T06:16:55.800Z,63.3
2018-04-09T06:17:57.167Z,63.3
2018-04-09T06:18:58.530Z,63.7
2018-04-09T06:19:59.887Z,63.4
2018-04-09T06:21:01.260Z,63.3
2018-04-09T06:22:02.609Z,63.0
2018-04-09T06:23:03.983Z,62.8
2018-04-09T06:24:05.356Z,62.8
2018-04-09T06:25:06.724Z,62.7
2018-04-09T06:26:08.082Z,62.9
2018-04-09T06:27:09.438Z,63.0
2018-04-09T06:28:10.838Z,63.0
2018-04-09T06:29:12.201Z,62.8
2018-04-09T06:30:13.564Z,63.1
2018-04-09T06:31:14.918Z,62.4
2018-04-09T06:32:16.525Z,63.1
2018-04-09T06:33:17.844Z,62.7
2018-04-09T06:34:19.390Z,62.8
2018-04-09T06:35:20.855Z,62.4
2018-04-09T06:36:22.237Z,62.9
2018-04-09T06:37:24.476Z,62.5
2018-04-09T06:38:26.131Z,62.5
2018-04-09T06:39:27.503Z,62.8
2018-04-09T06:40:28.869Z,62.8
2018-04-09T06:41:30.264Z,62.5
2018-04-09T06:42:31.664Z,62.8
2018-04-09T06:43:32.976Z,62.8
2018-04-09T06:44:34.346Z,62.5
2018-04-09T06:45:35.712Z,62.8
2018-04-09T06:46:37.068Z,62.7
2018-04-09T06:47:38.437Z,62.8
2018-04-09T06:48:40.416Z,62.9
2018-04-09T06:49:41.122Z,62.8
2018-04-09T06:50:42.496Z,62.8
2018-04-09T06:51:43.850Z,62.8
2018-04-09T06:52:45.220Z,62.6
2018-04-09T06:53:46.587Z,62.7
2018-04-09T06:54:47.966Z,62.7
2018-04-09T06:55:49.322Z,62.2
2018-04-09T06:56:50.703Z,61.9
2018-04-09T06:57:52.068Z,62.2
2018-04-09T06:58:53.428Z,62.0
2018-04-09T06:59:54.786Z,61.8
2018-04-09T07:00:56.193Z,61.5
2018-04-09T07:01:57.554Z,61.5
2018-04-09T07:02:58.919Z,61.5
2018-04-09T07:04:00.288Z,61.6
2018-04-09T07:05:01.660Z,61.7
2018-04-09T07:06:03.017Z,61.6
2018-04-09T07:07:04.384Z,61.8
2018-04-09T07:08:05.748Z,61.5
2018-04-09T07:09:07.117Z,61.2
2018-04-09T07:10:08.481Z,61.2
2018-04-09T07:11:09.843Z,61.3
2018-04-09T07:12:11.211Z,61.6
2018-04-09T07:13:12.571Z,61.6
2018-04-09T07:14:13.968Z,61.7
2018-04-09T07:15:15.333Z,61.5
2018-04-09T07:16:16.699Z,61.4
2018-04-09T07:17:18.057Z,61.6
2018-04-09T07:18:19.434Z,61.4
2018-04-09T07:19:20.794Z,61.8
2018-04-09T07:20:22.156Z,61.6
2018-04-09T07:21:23.557Z,61.5
2018-04-09T07:22:24.929Z,61.5
2018-04-09T07:23:26.300Z,61.5
2018-04-09T07:24:27.674Z,61.4
2018-04-09T07:25:29.052Z,61.6
2018-04-09T07:26:30.410Z,61.8
2018-04-09T07:27:31.778Z,61.9
2018-04-09T07:28:33.140Z,61.3
2018-04-09T07:29:34.498Z,61.6
2018-04-09T07:30:35.871Z,61.5
2018-04-09T07:31:37.235Z,61.3
2018-04-09T07:32:38.598Z,61.2
2018-04-09T07:33:39.967Z,61.2
2018-04-09T07:34:41.335Z,61.2
2018-04-09T07:35:42.704Z,61.3
2018-04-09T07:36:44.074Z,61.3
2018-04-09T07:37:45.438Z,61.7
2018-04-09T07:38:46.799Z,61.0
2018-04-09T07:39:48.169Z,61.4
2018-04-09T07:40:49.535Z,61.0
2018-04-09T07:41:50.902Z,61.4
2018-04-09T07:42:52.272Z,61.0
2018-04-09T07:43:53.637Z,60.8
2018-04-09T07:44:55.000Z,60.9
2018-04-09T07:45:56.362Z,61.1
2018-04-09T07:46:57.732Z,61.1
2018-04-09T07:47:59.098Z,61.1
2018-04-09T07:49:00.466Z,60.6
2018-04-09T07:50:01.855Z,60.8
2018-04-09T07:51:03.221Z,61.3
2018-04-09T07:52:04.589Z,61.4
2018-04-09T07:53:05.956Z,60.6
2018-04-09T07:54:07.325Z,61.0
2018-04-09T07:55:08.695Z,60.7
2018-04-09T07:56:10.070Z,60.6
2018-04-09T07:57:11.432Z,60.2
2018-04-09T07:58:12.803Z,60.8
2018-04-09T07:59:14.168Z,60.4
2018-04-09T08:00:15.545Z,59.9
2018-04-09T08:01:16.914Z,59.6
2018-04-09T08:02:18.292Z,59.9
2018-04-09T08:03:19.666Z,60.2
2018-04-09T08:04:21.028Z,60.0
2018-04-09T08:05:22.398Z,59.4
2018-04-09T08:06:24.645Z,59.4
2018-04-09T08:07:26.016Z,59.1
2018-04-09T08:08:27.379Z,58.9
2018-04-09T08:09:28.754Z,59.0
2018-04-09T08:10:30.142Z,59.1
2018-04-09T08:11:31.519Z,58.5
2018-04-09T08:12:32.890Z,58.6
2018-04-09T08:13:34.262Z,58.5
2018-04-09T08:14:35.631Z,58.3
2018-04-09T08:15:37.003Z,58.3
2018-04-09T08:16:38.382Z,57.6
2018-04-09T08:17:39.756Z,57.8
2018-04-09T08:18:41.129Z,58.1
2018-04-09T08:19:42.491Z,58.1
2018-04-09T08:20:43.860Z,58.3
2018-04-09T08:21:45.233Z,58.4
2018-04-09T08:22:46.607Z,57.8
2018-04-09T08:23:47.998Z,58.4
2018-04-09T08:24:49.372Z,58.1
2018-04-09T08:25:50.746Z,58.2
2018-04-09T08:26:52.116Z,58.2
2018-04-09T08:27:53.482Z,58.0
2018-04-09T08:28:54.856Z,58.3
2018-04-09T08:29:56.219Z,58.4
2018-04-09T08:30:57.596Z,57.9
2018-04-09T08:31:58.972Z,58.4
2018-04-09T08:33:00.337Z,57.6
2018-04-09T08:34:01.736Z,57.6
2018-04-09T08:35:03.088Z,57.7
2018-04-09T08:36:04.461Z,57.6
2018-04-09T08:37:05.826Z,57.8
2018-04-09T08:38:07.204Z,57.6
2018-04-09T08:39:08.565Z,57.9
2018-04-09T08:40:09.944Z,57.8
2018-04-09T08:41:11.317Z,57.6
2018-04-09T08:42:12.682Z,57.9
2018-04-09T08:43:14.058Z,58.1
2018-04-09T08:44:15.426Z,57.8
2018-04-09T08:45:16.798Z,58.4
2018-04-09T08:46:18.168Z,58.7
2018-04-09T08:47:19.542Z,58.6
2018-04-09T08:48:20.910Z,58.6
2018-04-09T08:49:22.281Z,58.4
2018-04-09T08:50:23.647Z,58.6
2018-04-09T08:51:25.032Z,58.3
2018-04-09T08:52:26.397Z,58.3
2018-04-09T08:53:27.767Z,58.4
2018-04-09T08:54:29.139Z,58.5
2018-04-09T08:55:30.517Z,58.5
2018-04-09T08:56:31.873Z,58.5
2018-04-09T08:57:33.237Z,58.3
2018-04-09T08:58:34.609Z,57.9
2018-04-09T08:59:35.994Z,58.4
2018-04-09T09:00:37.365Z,57.9
2018-04-09T09:01:38.757Z,57.6
2018-04-09T09:02:40.066Z,57.8
2018-04-09T09:03:41.434Z,57.9
2018-04-09T09:04:42.802Z,57.9
2018-04-09T09:05:44.173Z,57.4
2018-04-09T09:06:45.549Z,57.4
2018-04-09T09:07:46.916Z,57.3
2018-04-09T09:08:48.322Z,57.3
2018-04-09T09:09:49.796Z,56.6
2018-04-09T09:10:51.294Z,56.8
2018-04-09T09:11:53.212Z,56.4
2018-04-09T09:12:54.902Z,56.0
2018-04-09T09:13:56.276Z,56.4
2018-04-09T09:14:57.690Z,55.4
2018-04-09T09:15:59.111Z,55.5
2018-04-09T09:17:00.477Z,55.6
2018-04-09T09:18:01.856Z,55.3
2018-04-09T09:19:03.223Z,55.4
2018-04-09T09:20:04.599Z,55.6
2018-04-09T09:21:05.975Z,55.8
2018-04-09T09:22:07.353Z,55.1
2018-04-09T09:23:08.738Z,55.2
2018-04-09T09:24:10.118Z,54.6
2018-04-09T09:25:11.496Z,54.6
2018-04-09T09:26:12.873Z,54.7
2018-04-09T09:27:14.236Z,54.5
2018-04-09T09:28:15.611Z,54.9
2018-04-09T09:29:16.985Z,54.4
2018-04-09T09:30:18.368Z,54.6
2018-04-09T09:31:19.750Z,54.6
2018-04-09T09:32:21.124Z,54.8
2018-04-09T09:33:22.492Z,54.8
2018-04-09T09:34:23.880Z,54.3
2018-04-09T09:35:25.269Z,54.2
2018-04-09T09:36:27.056Z,54.3
2018-04-09T09:37:28.413Z,54.1
2018-04-09T09:38:29.767Z,53.7
2018-04-09T09:39:31.248Z,53.7
2018-04-09T09:40:32.619Z,53.7
2018-04-09T09:41:33.980Z,53.8
2018-04-09T09:42:35.469Z,53.7
2018-04-09T09:43:36.847Z,53.7
2018-04-09T09:44:38.246Z,53.8
2018-04-09T09:45:39.639Z,53.8
2018-04-09T09:46:41.106Z,53.4
2018-04-09T09:47:42.578Z,53.7
2018-04-09T09:48:43.968Z,53.5
2018-04-09T09:49:45.432Z,53.7
2018-04-09T09:50:46.807Z,53.8
2018-04-09T09:51:48.185Z,53.0
2018-04-09T09:52:49.569Z,53.2
2018-04-09T09:53:50.939Z,53.3
2018-04-09T09:54:52.317Z,53.3
2018-04-09T09:55:53.690Z,53.1
2018-04-09T09:56:55.070Z,53.1
2018-04-09T09:57:56.439Z,53.2
2018-04-09T09:58:57.822Z,53.3
2018-04-09T09:59:59.214Z,52.8
2018-04-09T10:01:00.594Z,53.0
2018-04-09T10:02:01.970Z,52.9
2018-04-09T10:03:03.342Z,52.5
2018-04-09T10:04:04.722Z,52.6
2018-04-09T10:05:06.094Z,52.2
2018-04-09T10:06:07.478Z,52.1
2018-04-09T10:07:08.863Z,51.7
2018-04-09T10:08:10.228Z,51.7
2018-04-09T10:09:11.618Z,51.6
2018-04-09T10:10:12.988Z,51.5
2018-04-09T10:11:14.370Z,51.3
2018-04-09T10:12:15.745Z,51.4
2018-04-09T10:13:17.117Z,50.6
2018-04-09T10:14:18.497Z,51.3
2018-04-09T10:15:19.876Z,50.9
2018-04-09T10:16:21.248Z,51.1
2018-04-09T10:17:22.626Z,50.4
2018-04-09T10:18:23.998Z,50.7
2018-04-09T10:19:25.393Z,50.6
2018-04-09T10:20:26.754Z,50.0
2018-04-09T10:21:28.141Z,49.8
2018-04-09T10:22:29.563Z,49.7
2018-04-09T10:23:30.946Z,49.4
2018-04-09T10:24:32.321Z,49.4
2018-04-09T10:25:33.702Z,48.8
2018-04-09T10:26:35.087Z,48.8
2018-04-09T10:27:36.461Z,48.7
2018-04-09T10:28:37.841Z,48.9
2018-04-09T10:29:39.218Z,49.0
2018-04-09T10:30:40.601Z,48.8
2018-04-09T10:31:41.991Z,49.0
2018-04-09T10:32:43.375Z,48.9
2018-04-09T10:33:44.755Z,48.8
2018-04-09T10:34:46.132Z,49.0
2018-04-09T10:35:47.508Z,48.8
2018-04-09T10:36:48.876Z,48.7
2018-04-09T10:37:50.268Z,48.5
2018-04-09T10:38:51.638Z,48.4
2018-04-09T10:39:53.039Z,48.6
2018-04-09T10:40:54.415Z,48.3
2018-04-09T10:41:55.790Z,48.5
2018-04-09T10:42:57.160Z,48.4
2018-04-09T10:43:58.530Z,48.3
2018-04-09T10:44:59.906Z,48.4
2018-04-09T10:46:01.281Z,48.2
2018-04-09T10:47:02.653Z,48.1
2018-04-09T10:48:04.034Z,48.0
2018-04-09T10:49:05.411Z,48.1
2018-04-09T10:50:06.792Z,47.4
2018-04-09T10:51:08.163Z,47.6
2018-04-09T10:52:09.544Z,47.4
2018-04-09T10:53:10.917Z,47.4
2018-04-09T10:54:12.293Z,46.9
2018-04-09T10:55:13.677Z,47.1
2018-04-09T10:56:15.046Z,47.1
2018-04-09T10:57:16.427Z,47.3
2018-04-09T10:58:17.804Z,47.2
2018-04-09T10:59:19.183Z,46.9
2018-04-09T11:00:20.559Z,46.9
2018-04-09T11:01:21.932Z,47.0
2018-04-09T11:02:23.308Z,47.3
2018-04-09T11:03:24.686Z,47.1
2018-04-09T11:04:26.065Z,47.1
2018-04-09T11:05:27.434Z,47.1
2018-04-09T11:06:28.814Z,47.2
2018-04-09T11:07:30.190Z,47.4
2018-04-09T11:08:31.574Z,47.2
2018-04-09T11:09:32.943Z,47.1
2018-04-09T11:10:34.334Z,46.7
2018-04-09T11:11:35.899Z,47.0
2018-04-09T11:12:37.276Z,46.3
2018-04-09T11:13:38.705Z,46.3
2018-04-09T11:14:40.030Z,46.2
2018-04-09T11:15:41.409Z,46.7
2018-04-09T11:16:42.784Z,45.9
2018-04-09T11:17:44.158Z,45.7
2018-04-09T11:18:45.541Z,45.9
2018-04-09T11:19:46.912Z,45.4
2018-04-09T11:20:48.296Z,45.6
2018-04-09T11:21:49.668Z,45.2
2018-04-09T11:22:51.053Z,44.8
2018-04-09T11:23:52.439Z,45.1
2018-04-09T11:24:53.820Z,45.1
2018-04-09T11:25:55.208Z,44.8
2018-04-09T11:26:56.585Z,44.5
2018-04-09T11:27:57.980Z,44.2
2018-04-09T11:28:59.360Z,44.4
2018-04-09T11:30:00.741Z,44.4
2018-04-09T11:31:02.116Z,44.4
2018-04-09T11:32:03.495Z,44.5
2018-04-09T11:33:04.877Z,44.3
2018-04-09T11:34:06.255Z,44.4
2018-04-09T11:35:07.628Z,44.4
2018-04-09T11:36:09.008Z,44.3
2018-04-09T11:37:10.389Z,44.0
2018-04-09T11:38:11.769Z,44.0
2018-04-09T11:39:13.145Z,43.7
2018-04-09T11:40:14.521Z,43.9
2018-04-09T11:41:15.905Z,43.9
2018-04-09T11:42:17.294Z,43.7
2018-04-09T11:43:18.668Z,43.8
2018-04-09T11:44:20.048Z,43.8
2018-04-09T11:45:21.428Z,43.7
2018-04-09T11:46:22.818Z,44.0
2018-04-09T11:47:24.198Z,43.8
2018-04-09T11:48:25.584Z,43.5
2018-04-09T11:49:26.964Z,43.1
2018-04-09T11:50:28.403Z,43.2
2018-04-09T11:51:29.783Z,43.2
2018-04-09T11:52:33.965Z,43.0
2018-04-09T11:53:35.313Z,43.1
2018-04-09T11:54:36.683Z,42.9
2018-04-09T11:55:38.059Z,43.0
2018-04-09T11:56:39.434Z,43.1
2018-04-09T11:58:42.158Z,42.9
2018-04-09T11:59:43.538Z,42.8
2018-04-09T12:00:44.922Z,42.9
2018-04-09T12:01:46.300Z,42.7
2018-04-09T12:02:47.676Z,42.5
2018-04-09T12:03:49.049Z,42.4
2018-04-09T12:04:50.425Z,42.2
2018-04-09T12:05:51.798Z,42.5
2018-04-09T12:06:53.174Z,42.1
2018-04-09T12:07:54.549Z,42.9
2018-04-09T12:08:55.926Z,42.9
2018-04-09T12:09:57.296Z,42.2
2018-04-09T12:10:58.680Z,42.7
2018-04-09T12:12:00.066Z,42.5
2018-04-09T12:13:01.447Z,42.2
2018-04-09T12:14:02.826Z,43.0
2018-04-09T12:15:04.205Z,42.9
2018-04-09T12:16:05.577Z,42.2
2018-04-09T12:17:06.960Z,42.7
2018-04-09T12:18:08.336Z,42.4
2018-04-09T12:19:09.713Z,42.8
2018-04-09T12:20:11.112Z,42.2
2018-04-09T12:21:12.493Z,42.0
2018-04-09T12:22:13.872Z,42.8
2018-04-09T12:23:15.256Z,42.9
2018-04-09T12:24:16.623Z,42.3
2018-04-09T12:25:17.998Z,42.2
2018-04-09T12:26:19.366Z,42.4
2018-04-09T12:27:20.759Z,42.6
2018-04-09T12:28:22.123Z,42.5
2018-04-09T12:29:23.502Z,42.6
2018-04-09T12:30:24.884Z,42.7
2018-04-09T12:31:26.259Z,42.6
2018-04-09T12:32:27.635Z,42.2
2018-04-09T12:33:29.008Z,42.5
2018-04-09T12:34:30.389Z,42.6
2018-04-09T12:35:31.763Z,42.2
2018-04-09T12:36:33.136Z,42.4
2018-04-09T12:37:34.510Z,42.3
2018-04-09T12:38:35.898Z,42.6
2018-04-09T12:39:37.275Z,42.6
2018-04-09T12:40:38.657Z,42.5
2018-04-09T12:41:40.039Z,42.8
2018-04-09T12:42:41.412Z,42.3
2018-04-09T12:43:42.789Z,42.6
2018-04-09T12:44:44.176Z,42.4
2018-04-09T12:45:45.545Z,42.5
2018-04-09T12:46:46.921Z,42.3
2018-04-09T12:47:48.300Z,42.1
2018-04-09T12:48:49.675Z,41.8
2018-04-09T12:49:51.061Z,41.8
2018-04-09T12:50:52.440Z,42.1
2018-04-09T12:51:53.811Z,41.7
2018-04-09T12:52:55.234Z,41.9
2018-04-09T12:53:56.570Z,41.2
2018-04-09T12:54:57.944Z,41.5
2018-04-09T12:55:59.319Z,41.5
2018-04-09T12:57:00.692Z,41.8
2018-04-09T12:58:02.073Z,41.4
2018-04-09T12:59:03.450Z,40.7
2018-04-09T13:00:04.831Z,40.7
2018-04-09T13:01:45.690Z,40.8
2018-04-09T13:02:47.065Z,40.2
2018-04-09T13:03:48.441Z,39.9
2018-04-09T13:04:49.822Z,39.8
2018-04-09T13:05:51.197Z,39.7
2018-04-09T13:06:52.573Z,39.3
2018-04-09T13:07:54.015Z,39.4
2018-04-09T13:08:55.395Z,39.5
2018-04-09T13:09:56.771Z,39.7
2018-04-09T13:10:58.156Z,39.3
2018-04-09T13:11:59.528Z,39.5
2018-04-09T13:13:00.933Z,39.3
2018-04-09T13:14:02.317Z,39.2
2018-04-09T13:15:03.706Z,38.5
2018-04-09T13:16:05.089Z,38.9
2018-04-09T13:17:06.456Z,38.8
2018-04-09T13:18:07.833Z,38.9
2018-04-09T13:19:09.210Z,38.6
2018-04-09T13:20:10.606Z,38.5
2018-04-09T13:21:11.993Z,38.6
2018-04-09T13:22:13.366Z,38.5
2018-04-09T13:23:14.741Z,38.3
2018-04-09T13:24:16.119Z,38.8
2018-04-09T13:25:17.496Z,38.8
2018-04-09T13:26:18.870Z,38.5
2018-04-09T13:27:20.251Z,38.5
2018-04-09T13:28:21.648Z,38.7
2018-04-09T13:29:23.042Z,38.6
2018-04-09T13:30:24.437Z,38.8
2018-04-09T13:31:25.821Z,38.8
2018-04-09T13:32:27.209Z,38.6
2018-04-09T13:33:28.595Z,38.2
2018-04-09T13:34:29.978Z,38.6
2018-04-09T13:35:31.396Z,38.5
2018-04-09T13:36:32.735Z,38.4
2018-04-09T13:37:34.105Z,38.3
2018-04-09T13:38:35.489Z,38.1